sensor_id;sensor_type;location;lat;lon;timestamp;temperature;humidity
23633;DHT22;11993;48.748;9.166;2022-08-23T00:01:27;19.10;57.30
23633;DHT22;11993;48.748;9.166;2022-08-23T00:03:54;19.10;57.10
23633;DHT22;11993;48.748;9.166;2022-08-23T00:06:21;19.10;57.00
23633;DHT22;11993;48.748;9.166;2022-08-23T00:08:48;19.10;57.10
23633;DHT22;11993;48.748;9.166;2022-08-23T00:11:34;19.10;56.80
23633;DHT22;11993;48.748;9.166;2022-08-23T00:14:06;19.10;56.90
23633;DHT22;11993;48.748;9.166;2022-08-23T00:16:33;19.00;57.60
23633;DHT22;11993;48.748;9.166;2022-08-23T00:19:00;19.00;57.60
23633;DHT22;11993;48.748;9.166;2022-08-23T00:21:25;18.90;57.90
23633;DHT22;11993;48.748;9.166;2022-08-23T00:23:51;18.90;58.10
23633;DHT22;11993;48.748;9.166;2022-08-23T00:26:17;18.90;58.20
23633;DHT22;11993;48.748;9.166;2022-08-23T00:28:45;18.60;58.70
23633;DHT22;11993;48.748;9.166;2022-08-23T00:31:10;18.80;58.60
23633;DHT22;11993;48.748;9.166;2022-08-23T00:33:36;18.80;58.70
23633;DHT22;11993;48.748;9.166;2022-08-23T00:36:02;18.80;58.30
23633;DHT22;11993;48.748;9.166;2022-08-23T00:38:27;18.70;58.70
23633;DHT22;11993;48.748;9.166;2022-08-23T00:40:53;18.70;58.80
23633;DHT22;11993;48.748;9.166;2022-08-23T00:43:26;18.60;58.90
23633;DHT22;11993;48.748;9.166;2022-08-23T00:49:06;18.70;58.60
23633;DHT22;11993;48.748;9.166;2022-08-23T00:51:44;18.60;59.00
23633;DHT22;11993;48.748;9.166;2022-08-23T00:54:11;18.60;58.90
23633;DHT22;11993;48.748;9.166;2022-08-23T00:56:39;18.60;59.00
23633;DHT22;11993;48.748;9.166;2022-08-23T00:59:06;18.60;59.10
23633;DHT22;11993;48.748;9.166;2022-08-23T01:01:32;18.60;58.90
23633;DHT22;11993;48.748;9.166;2022-08-23T01:03:58;18.70;58.70
23633;DHT22;11993;48.748;9.166;2022-08-23T01:06:41;18.60;58.60
23633;DHT22;11993;48.748;9.166;2022-08-23T01:09:17;18.60;58.60
23633;DHT22;11993;48.748;9.166;2022-08-23T01:11:55;18.60;58.90
23633;DHT22;11993;48.748;9.166;2022-08-23T01:14:31;18.60;58.90
23633;DHT22;11993;48.748;9.166;2022-08-23T01:17:25;18.50;59.10
23633;DHT22;11993;48.748;9.166;2022-08-23T01:19:54;18.50;59.10
23633;DHT22;11993;48.748;9.166;2022-08-23T01:22:31;18.50;59.00
23633;DHT22;11993;48.748;9.166;2022-08-23T01:24:59;18.50;58.80
23633;DHT22;11993;48.748;9.166;2022-08-23T01:27:26;18.60;58.40
23633;DHT22;11993;48.748;9.166;2022-08-23T01:29:52;18.60;58.70
23633;DHT22;11993;48.748;9.166;2022-08-23T01:32:18;18.40;59.20
23633;DHT22;11993;48.748;9.166;2022-08-23T01:34:44;18.40;59.20
23633;DHT22;11993;48.748;9.166;2022-08-23T01:37:09;18.50;59.00
23633;DHT22;11993;48.748;9.166;2022-08-23T01:39:35;18.50;59.10
23633;DHT22;11993;48.748;9.166;2022-08-23T01:42:01;18.50;59.00
23633;DHT22;11993;48.748;9.166;2022-08-23T01:44:26;18.50;59.00
23633;DHT22;11993;48.748;9.166;2022-08-23T01:46:52;18.50;58.90
23633;DHT22;11993;48.748;9.166;2022-08-23T01:49:18;18.40;59.20
23633;DHT22;11993;48.748;9.166;2022-08-23T01:51:44;18.50;59.00
23633;DHT22;11993;48.748;9.166;2022-08-23T01:54:11;18.60;58.90
23633;DHT22;11993;48.748;9.166;2022-08-23T01:56:37;18.50;59.10
23633;DHT22;11993;48.748;9.166;2022-08-23T01:59:06;18.60;59.10
23633;DHT22;11993;48.748;9.166;2022-08-23T02:01:31;18.60;58.80
23633;DHT22;11993;48.748;9.166;2022-08-23T02:03:57;18.60;58.90
23633;DHT22;11993;48.748;9.166;2022-08-23T02:06:23;18.50;59.10
23633;DHT22;11993;48.748;9.166;2022-08-23T02:08:48;18.50;59.20
23633;DHT22;11993;48.748;9.166;2022-08-23T02:11:30;18.40;59.30
23633;DHT22;11993;48.748;9.166;2022-08-23T02:13:58;18.40;59.20
23633;DHT22;11993;48.748;9.166;2022-08-23T02:16:38;18.40;59.40
23633;DHT22;11993;48.748;9.166;2022-08-23T02:19:05;18.30;59.60
23633;DHT22;11993;48.748;9.166;2022-08-23T02:21:32;18.20;59.90
23633;DHT22;11993;48.748;9.166;2022-08-23T02:24:02;18.10;60.30
23633;DHT22;11993;48.748;9.166;2022-08-23T02:26:28;18.10;60.50
23633;DHT22;11993;48.748;9.166;2022-08-23T02:28:53;18.10;60.70
23633;DHT22;11993;48.748;9.166;2022-08-23T02:31:20;17.90;61.20
23633;DHT22;11993;48.748;9.166;2022-08-23T02:33:47;17.90;61.30
23633;DHT22;11993;48.748;9.166;2022-08-23T02:36:14;17.90;61.30
23633;DHT22;11993;48.748;9.166;2022-08-23T02:38:39;17.90;61.20
23633;DHT22;11993;48.748;9.166;2022-08-23T02:41:05;17.70;61.70
23633;DHT22;11993;48.748;9.166;2022-08-23T02:43:30;17.70;61.60
23633;DHT22;11993;48.748;9.166;2022-08-23T02:45:57;17.70;61.80
23633;DHT22;11993;48.748;9.166;2022-08-23T02:48:23;17.60;62.00
23633;DHT22;11993;48.748;9.166;2022-08-23T02:50:48;17.60;62.00
23633;DHT22;11993;48.748;9.166;2022-08-23T02:53:17;17.60;62.20
23633;DHT22;11993;48.748;9.166;2022-08-23T02:55:52;17.60;62.40
23633;DHT22;11993;48.748;9.166;2022-08-23T02:58:17;17.50;62.70
23633;DHT22;11993;48.748;9.166;2022-08-23T03:00:46;17.60;62.50
23633;DHT22;11993;48.748;9.166;2022-08-23T03:03:12;17.50;62.50
23633;DHT22;11993;48.748;9.166;2022-08-23T03:05:38;17.40;62.80
23633;DHT22;11993;48.748;9.166;2022-08-23T03:08:03;17.30;62.90
23633;DHT22;11993;48.748;9.166;2022-08-23T03:10:29;17.40;62.70
23633;DHT22;11993;48.748;9.166;2022-08-23T03:12:55;17.30;62.90
23633;DHT22;11993;48.748;9.166;2022-08-23T03:15:21;17.30;63.10
23633;DHT22;11993;48.748;9.166;2022-08-23T03:17:47;17.30;63.20
23633;DHT22;11993;48.748;9.166;2022-08-23T03:20:13;17.30;63.10
23633;DHT22;11993;48.748;9.166;2022-08-23T03:22:39;17.10;63.80
23633;DHT22;11993;48.748;9.166;2022-08-23T03:25:05;17.20;63.90
23633;DHT22;11993;48.748;9.166;2022-08-23T03:27:31;17.20;63.80
23633;DHT22;11993;48.748;9.166;2022-08-23T03:29:57;17.30;63.50
23633;DHT22;11993;48.748;9.166;2022-08-23T03:32:22;17.30;63.60
23633;DHT22;11993;48.748;9.166;2022-08-23T03:34:48;17.30;63.50
23633;DHT22;11993;48.748;9.166;2022-08-23T03:37:13;17.40;63.10
23633;DHT22;11993;48.748;9.166;2022-08-23T03:39:39;17.40;62.70
23633;DHT22;11993;48.748;9.166;2022-08-23T03:42:05;17.50;62.40
23633;DHT22;11993;48.748;9.166;2022-08-23T03:44:31;17.60;61.90
23633;DHT22;11993;48.748;9.166;2022-08-23T03:46:57;17.60;61.80
23633;DHT22;11993;48.748;9.166;2022-08-23T03:49:23;17.70;61.30
23633;DHT22;11993;48.748;9.166;2022-08-23T03:51:49;17.70;61.30
23633;DHT22;11993;48.748;9.166;2022-08-23T03:54:14;17.70;61.20
23633;DHT22;11993;48.748;9.166;2022-08-23T03:56:51;17.70;60.90
23633;DHT22;11993;48.748;9.166;2022-08-23T03:59:17;17.60;60.80
23633;DHT22;11993;48.748;9.166;2022-08-23T04:01:42;17.70;60.90
23633;DHT22;11993;48.748;9.166;2022-08-23T04:04:08;17.70;60.60
23633;DHT22;11993;48.748;9.166;2022-08-23T04:06:34;17.80;60.60
23633;DHT22;11993;48.748;9.166;2022-08-23T04:09:00;17.70;60.40
23633;DHT22;11993;48.748;9.166;2022-08-23T04:11:25;17.70;60.50
23633;DHT22;11993;48.748;9.166;2022-08-23T04:13:52;17.70;60.50
23633;DHT22;11993;48.748;9.166;2022-08-23T04:16:18;17.70;60.60
23633;DHT22;11993;48.748;9.166;2022-08-23T04:18:44;17.70;60.50
23633;DHT22;11993;48.748;9.166;2022-08-23T04:21:15;17.70;60.20
23633;DHT22;11993;48.748;9.166;2022-08-23T04:23:41;17.80;60.40
23633;DHT22;11993;48.748;9.166;2022-08-23T04:26:08;17.80;60.50
23633;DHT22;11993;48.748;9.166;2022-08-23T04:28:34;17.80;60.40
23633;DHT22;11993;48.748;9.166;2022-08-23T04:31:00;17.80;60.30
23633;DHT22;11993;48.748;9.166;2022-08-23T04:33:27;17.90;60.40
23633;DHT22;11993;48.748;9.166;2022-08-23T04:35:53;17.80;60.20
23633;DHT22;11993;48.748;9.166;2022-08-23T04:38:18;17.70;60.50
23633;DHT22;11993;48.748;9.166;2022-08-23T04:40:44;17.80;60.40
23633;DHT22;11993;48.748;9.166;2022-08-23T04:43:28;17.80;60.30
23633;DHT22;11993;48.748;9.166;2022-08-23T04:45:54;17.80;60.30
23633;DHT22;11993;48.748;9.166;2022-08-23T04:48:20;17.80;60.20
23633;DHT22;11993;48.748;9.166;2022-08-23T04:50:47;17.80;60.30
23633;DHT22;11993;48.748;9.166;2022-08-23T04:53:13;17.80;60.20
23633;DHT22;11993;48.748;9.166;2022-08-23T04:55:39;17.80;60.10
23633;DHT22;11993;48.748;9.166;2022-08-23T04:58:05;17.70;60.30
23633;DHT22;11993;48.748;9.166;2022-08-23T05:00:31;17.80;60.20
23633;DHT22;11993;48.748;9.166;2022-08-23T05:02:58;17.90;60.10
23633;DHT22;11993;48.748;9.166;2022-08-23T05:05:24;17.90;59.90
23633;DHT22;11993;48.748;9.166;2022-08-23T05:07:50;18.00;59.60
23633;DHT22;11993;48.748;9.166;2022-08-23T05:10:15;18.10;59.40
23633;DHT22;11993;48.748;9.166;2022-08-23T05:12:42;18.20;58.90
23633;DHT22;11993;48.748;9.166;2022-08-23T05:15:08;18.20;58.80
23633;DHT22;11993;48.748;9.166;2022-08-23T05:17:35;18.30;58.60
23633;DHT22;11993;48.748;9.166;2022-08-23T05:20:01;18.20;58.60
23633;DHT22;11993;48.748;9.166;2022-08-23T05:22:26;18.30;58.40
23633;DHT22;11993;48.748;9.166;2022-08-23T05:24:53;18.40;58.40
23633;DHT22;11993;48.748;9.166;2022-08-23T05:27:18;18.50;58.00
23633;DHT22;11993;48.748;9.166;2022-08-23T05:29:44;18.60;58.00
23633;DHT22;11993;48.748;9.166;2022-08-23T05:32:10;18.50;58.10
23633;DHT22;11993;48.748;9.166;2022-08-23T05:34:36;18.50;58.30
23633;DHT22;11993;48.748;9.166;2022-08-23T05:37:01;18.60;58.50
23633;DHT22;11993;48.748;9.166;2022-08-23T05:39:27;18.60;58.30
23633;DHT22;11993;48.748;9.166;2022-08-23T05:41:53;18.80;58.00
23633;DHT22;11993;48.748;9.166;2022-08-23T05:44:18;18.80;57.70
23633;DHT22;11993;48.748;9.166;2022-08-23T05:46:44;18.80;57.90
23633;DHT22;11993;48.748;9.166;2022-08-23T05:49:10;19.00;57.70
23633;DHT22;11993;48.748;9.166;2022-08-23T05:51:35;19.00;57.70
23633;DHT22;11993;48.748;9.166;2022-08-23T05:54:05;18.90;57.80
23633;DHT22;11993;48.748;9.166;2022-08-23T05:56:36;19.10;57.60
23633;DHT22;11993;48.748;9.166;2022-08-23T05:59:05;19.20;57.40
23633;DHT22;11993;48.748;9.166;2022-08-23T06:01:33;19.30;57.00
23633;DHT22;11993;48.748;9.166;2022-08-23T06:03:59;19.30;56.90
23633;DHT22;11993;48.748;9.166;2022-08-23T06:06:26;19.50;56.80
23633;DHT22;11993;48.748;9.166;2022-08-23T06:08:51;19.60;56.70
23633;DHT22;11993;48.748;9.166;2022-08-23T06:11:20;19.70;56.30
23633;DHT22;11993;48.748;9.166;2022-08-23T06:13:52;19.70;56.60
23633;DHT22;11993;48.748;9.166;2022-08-23T06:16:23;19.60;56.80
23633;DHT22;11993;48.748;9.166;2022-08-23T06:18:49;19.60;57.00
23633;DHT22;11993;48.748;9.166;2022-08-23T06:21:16;19.80;56.50
23633;DHT22;11993;48.748;9.166;2022-08-23T06:23:42;19.90;56.40
23633;DHT22;11993;48.748;9.166;2022-08-23T06:28:45;20.30;55.30
23633;DHT22;11993;48.748;9.166;2022-08-23T06:31:11;20.40;55.00
23633;DHT22;11993;48.748;9.166;2022-08-23T06:33:39;20.50;55.20
23633;DHT22;11993;48.748;9.166;2022-08-23T06:36:09;20.60;55.10
23633;DHT22;11993;48.748;9.166;2022-08-23T06:38:35;20.80;54.10
23633;DHT22;11993;48.748;9.166;2022-08-23T06:41:03;20.90;54.10
23633;DHT22;11993;48.748;9.166;2022-08-23T06:43:30;20.70;54.50
23633;DHT22;11993;48.748;9.166;2022-08-23T06:46:06;20.90;54.20
23633;DHT22;11993;48.748;9.166;2022-08-23T06:48:32;21.10;54.20
23633;DHT22;11993;48.748;9.166;2022-08-23T06:50:57;21.10;54.30
23633;DHT22;11993;48.748;9.166;2022-08-23T06:53:23;21.30;53.80
23633;DHT22;11993;48.748;9.166;2022-08-23T06:55:48;21.30;54.10
23633;DHT22;11993;48.748;9.166;2022-08-23T06:58:14;21.50;53.90
23633;DHT22;11993;48.748;9.166;2022-08-23T07:00:39;21.50;53.80
23633;DHT22;11993;48.748;9.166;2022-08-23T07:03:06;21.50;53.80
23633;DHT22;11993;48.748;9.166;2022-08-23T07:05:31;21.50;54.10
23633;DHT22;11993;48.748;9.166;2022-08-23T07:07:57;21.70;54.10
23633;DHT22;11993;48.748;9.166;2022-08-23T07:10:23;21.80;53.80
23633;DHT22;11993;48.748;9.166;2022-08-23T07:12:48;22.00;53.20
23633;DHT22;11993;48.748;9.166;2022-08-23T07:15:14;21.90;53.90
23633;DHT22;11993;48.748;9.166;2022-08-23T07:17:40;22.00;53.70
23633;DHT22;11993;48.748;9.166;2022-08-23T07:20:05;22.10;53.80
23633;DHT22;11993;48.748;9.166;2022-08-23T07:22:31;22.10;53.80
23633;DHT22;11993;48.748;9.166;2022-08-23T07:24:57;22.30;52.80
23633;DHT22;11993;48.748;9.166;2022-08-23T07:27:22;22.60;51.90
23633;DHT22;11993;48.748;9.166;2022-08-23T07:29:48;22.50;51.60
23633;DHT22;11993;48.748;9.166;2022-08-23T07:32:13;22.70;51.40
23633;DHT22;11993;48.748;9.166;2022-08-23T07:34:39;22.60;50.60
23633;DHT22;11993;48.748;9.166;2022-08-23T07:37:05;23.00;50.40
23633;DHT22;11993;48.748;9.166;2022-08-23T07:39:31;23.10;50.40
23633;DHT22;11993;48.748;9.166;2022-08-23T07:42:00;23.10;49.70
23633;DHT22;11993;48.748;9.166;2022-08-23T07:44:28;23.20;47.90
23633;DHT22;11993;48.748;9.166;2022-08-23T07:46:54;23.40;46.50
23633;DHT22;11993;48.748;9.166;2022-08-23T07:49:20;23.30;44.30
23633;DHT22;11993;48.748;9.166;2022-08-23T07:51:48;23.50;45.10
23633;DHT22;11993;48.748;9.166;2022-08-23T07:54:15;23.90;45.20
23633;DHT22;11993;48.748;9.166;2022-08-23T07:56:41;23.80;45.10
23633;DHT22;11993;48.748;9.166;2022-08-23T07:59:07;24.10;45.20
23633;DHT22;11993;48.748;9.166;2022-08-23T08:01:33;24.10;44.70
23633;DHT22;11993;48.748;9.166;2022-08-23T08:04:01;24.10;45.40
23633;DHT22;11993;48.748;9.166;2022-08-23T08:06:28;24.30;44.10
23633;DHT22;11993;48.748;9.166;2022-08-23T08:08:55;24.60;44.70
23633;DHT22;11993;48.748;9.166;2022-08-23T08:11:23;24.80;43.50
23633;DHT22;11993;48.748;9.166;2022-08-23T08:13:51;25.10;44.20
23633;DHT22;11993;48.748;9.166;2022-08-23T08:16:26;24.90;44.40
23633;DHT22;11993;48.748;9.166;2022-08-23T08:18:57;25.10;44.70
23633;DHT22;11993;48.748;9.166;2022-08-23T08:21:24;25.00;44.70
23633;DHT22;11993;48.748;9.166;2022-08-23T08:23:51;25.00;44.10
23633;DHT22;11993;48.748;9.166;2022-08-23T08:26:17;25.10;44.30
23633;DHT22;11993;48.748;9.166;2022-08-23T08:28:43;25.20;44.40
23633;DHT22;11993;48.748;9.166;2022-08-23T08:31:10;25.50;44.40
23633;DHT22;11993;48.748;9.166;2022-08-23T08:33:36;25.70;43.20
23633;DHT22;11993;48.748;9.166;2022-08-23T08:36:02;25.60;42.90
23633;DHT22;11993;48.748;9.166;2022-08-23T08:38:28;25.80;42.80
23633;DHT22;11993;48.748;9.166;2022-08-23T08:49:01;26.90;40.10
23633;DHT22;11993;48.748;9.166;2022-08-23T08:51:40;26.90;39.20
23633;DHT22;11993;48.748;9.166;2022-08-23T08:54:13;27.10;37.90
23633;DHT22;11993;48.748;9.166;2022-08-23T08:56:50;27.10;37.80
23633;DHT22;11993;48.748;9.166;2022-08-23T08:59:27;27.10;39.00
23633;DHT22;11993;48.748;9.166;2022-08-23T09:01:55;27.30;36.60
23633;DHT22;11993;48.748;9.166;2022-08-23T09:04:22;27.30;36.40
23633;DHT22;11993;48.748;9.166;2022-08-23T09:15:41;27.40;36.50
23633;DHT22;11993;48.748;9.166;2022-08-23T09:18:14;27.60;36.60
23633;DHT22;11993;48.748;9.166;2022-08-23T09:20:42;27.30;36.90
23633;DHT22;11993;48.748;9.166;2022-08-23T09:23:14;27.40;34.00
23633;DHT22;11993;48.748;9.166;2022-08-23T09:25:51;27.50;34.90
23633;DHT22;11993;48.748;9.166;2022-08-23T09:28:17;27.60;35.70
23633;DHT22;11993;48.748;9.166;2022-08-23T09:30:47;27.60;35.80
23633;DHT22;11993;48.748;9.166;2022-08-23T09:33:20;27.60;34.50
23633;DHT22;11993;48.748;9.166;2022-08-23T09:36:04;27.70;34.50
23633;DHT22;11993;48.748;9.166;2022-08-23T09:38:31;28.00;34.60
23633;DHT22;11993;48.748;9.166;2022-08-23T09:40:57;28.00;33.60
23633;DHT22;11993;48.748;9.166;2022-08-23T09:43:26;27.40;34.30
23633;DHT22;11993;48.748;9.166;2022-08-23T09:48:39;28.00;33.20
23633;DHT22;11993;48.748;9.166;2022-08-23T09:51:18;28.40;32.60
23633;DHT22;11993;48.748;9.166;2022-08-23T09:54:11;28.10;32.30
23633;DHT22;11993;48.748;9.166;2022-08-23T09:56:38;28.10;32.80
23633;DHT22;11993;48.748;9.166;2022-08-23T09:59:31;28.20;33.60
23633;DHT22;11993;48.748;9.166;2022-08-23T10:01:59;28.10;32.70
23633;DHT22;11993;48.748;9.166;2022-08-23T10:04:41;28.20;31.60
23633;DHT22;11993;48.748;9.166;2022-08-23T10:09:49;28.60;32.10
23633;DHT22;11993;48.748;9.166;2022-08-23T10:12:15;28.80;31.40
23633;DHT22;11993;48.748;9.166;2022-08-23T10:14:40;28.90;32.00
23633;DHT22;11993;48.748;9.166;2022-08-23T10:22:39;29.60;30.60
23633;DHT22;11993;48.748;9.166;2022-08-23T10:25:18;30.00;30.40
23633;DHT22;11993;48.748;9.166;2022-08-23T10:33:41;30.50;29.90
23633;DHT22;11993;48.748;9.166;2022-08-23T10:39:03;30.60;28.20
23633;DHT22;11993;48.748;9.166;2022-08-23T10:41:53;30.60;28.80
23633;DHT22;11993;48.748;9.166;2022-08-23T10:49:37;31.00;29.20
23633;DHT22;11993;48.748;9.166;2022-08-23T10:52:06;30.80;29.30
23633;DHT22;11993;48.748;9.166;2022-08-23T10:54:36;30.70;28.90
23633;DHT22;11993;48.748;9.166;2022-08-23T10:57:14;30.90;28.50
23633;DHT22;11993;48.748;9.166;2022-08-23T10:59:42;30.30;29.10
23633;DHT22;11993;48.748;9.166;2022-08-23T11:05:28;30.80;29.10
23633;DHT22;11993;48.748;9.166;2022-08-23T11:08:06;31.00;28.20
23633;DHT22;11993;48.748;9.166;2022-08-23T11:10:43;30.90;28.10
23633;DHT22;11993;48.748;9.166;2022-08-23T11:15:45;30.80;28.20
23633;DHT22;11993;48.748;9.166;2022-08-23T11:18:48;31.30;28.20
23633;DHT22;11993;48.748;9.166;2022-08-23T11:23:54;31.50;27.60
23633;DHT22;11993;48.748;9.166;2022-08-23T11:42:22;31.40;27.30
23633;DHT22;11993;48.748;9.166;2022-08-23T11:44:49;32.00;27.20
23633;DHT22;11993;48.748;9.166;2022-08-23T11:47:26;31.90;27.10
23633;DHT22;11993;48.748;9.166;2022-08-23T11:50:05;31.40;27.40
23633;DHT22;11993;48.748;9.166;2022-08-23T11:53:15;31.50;27.70
23633;DHT22;11993;48.748;9.166;2022-08-23T11:56:01;31.80;27.50
23633;DHT22;11993;48.748;9.166;2022-08-23T11:58:52;31.50;27.30
23633;DHT22;11993;48.748;9.166;2022-08-23T12:01:47;31.80;27.60
23633;DHT22;11993;48.748;9.166;2022-08-23T12:04:35;32.10;27.40
23633;DHT22;11993;48.748;9.166;2022-08-23T12:07:02;32.30;27.60
23633;DHT22;11993;48.748;9.166;2022-08-23T12:12:13;32.40;27.90
23633;DHT22;11993;48.748;9.166;2022-08-23T12:14:51;32.30;27.20
23633;DHT22;11993;48.748;9.166;2022-08-23T12:19:50;32.10;27.50
23633;DHT22;11993;48.748;9.166;2022-08-23T12:22:22;32.30;27.50
23633;DHT22;11993;48.748;9.166;2022-08-23T12:25:00;32.70;27.50
23633;DHT22;11993;48.748;9.166;2022-08-23T12:32:51;33.30;26.50
23633;DHT22;11993;48.748;9.166;2022-08-23T12:39:05;32.40;27.30
23633;DHT22;11993;48.748;9.166;2022-08-23T12:41:56;32.60;27.20
23633;DHT22;11993;48.748;9.166;2022-08-23T12:44:25;33.00;26.70
23633;DHT22;11993;48.748;9.166;2022-08-23T12:46:51;33.10;26.70
23633;DHT22;11993;48.748;9.166;2022-08-23T12:49:52;32.80;26.70
23633;DHT22;11993;48.748;9.166;2022-08-23T12:55:45;33.80;26.10
23633;DHT22;11993;48.748;9.166;2022-08-23T12:58:14;34.10;26.20
23633;DHT22;11993;48.748;9.166;2022-08-23T13:00:52;34.20;25.30
23633;DHT22;11993;48.748;9.166;2022-08-23T13:03:32;34.00;25.90
23633;DHT22;11993;48.748;9.166;2022-08-23T13:06:03;34.10;25.60
23633;DHT22;11993;48.748;9.166;2022-08-23T13:11:18;33.30;26.40
23633;DHT22;11993;48.748;9.166;2022-08-23T13:13:45;33.10;27.00
23633;DHT22;11993;48.748;9.166;2022-08-23T13:19:25;33.10;26.60
23633;DHT22;11993;48.748;9.166;2022-08-23T13:22:17;32.90;27.00
23633;DHT22;11993;48.748;9.166;2022-08-23T13:25:06;32.40;27.20
23633;DHT22;11993;48.748;9.166;2022-08-23T13:32:42;32.80;26.80
23633;DHT22;11993;48.748;9.166;2022-08-23T13:41:00;32.20;28.20
23633;DHT22;11993;48.748;9.166;2022-08-23T13:43:46;31.60;28.90
23633;DHT22;11993;48.748;9.166;2022-08-23T13:46:19;31.20;29.00
23633;DHT22;11993;48.748;9.166;2022-08-23T13:53:51;31.30;28.50
23633;DHT22;11993;48.748;9.166;2022-08-23T13:56:16;31.50;28.40
23633;DHT22;11993;48.748;9.166;2022-08-23T13:59:01;31.10;28.60
23633;DHT22;11993;48.748;9.166;2022-08-23T14:01:28;31.50;29.30
23633;DHT22;11993;48.748;9.166;2022-08-23T14:03:54;31.50;28.70
23633;DHT22;11993;48.748;9.166;2022-08-23T14:06:20;32.00;27.70
23633;DHT22;11993;48.748;9.166;2022-08-23T14:08:45;32.30;27.90
23633;DHT22;11993;48.748;9.166;2022-08-23T14:11:12;32.10;28.10
23633;DHT22;11993;48.748;9.166;2022-08-23T14:13:43;31.60;28.40
23633;DHT22;11993;48.748;9.166;2022-08-23T14:16:13;31.00;28.70
23633;DHT22;11993;48.748;9.166;2022-08-23T14:18:40;31.10;28.90
23633;DHT22;11993;48.748;9.166;2022-08-23T14:21:05;31.10;29.40
23633;DHT22;11993;48.748;9.166;2022-08-23T14:23:31;30.60;30.30
23633;DHT22;11993;48.748;9.166;2022-08-23T14:25:57;30.30;30.40
23633;DHT22;11993;48.748;9.166;2022-08-23T14:28:25;30.50;31.00
23633;DHT22;11993;48.748;9.166;2022-08-23T14:30:51;30.70;30.30
23633;DHT22;11993;48.748;9.166;2022-08-23T14:33:17;30.90;30.20
23633;DHT22;11993;48.748;9.166;2022-08-23T14:35:44;31.30;29.70
23633;DHT22;11993;48.748;9.166;2022-08-23T14:38:09;31.10;29.40
23633;DHT22;11993;48.748;9.166;2022-08-23T14:40:36;31.20;29.70
23633;DHT22;11993;48.748;9.166;2022-08-23T14:43:03;31.50;29.80
23633;DHT22;11993;48.748;9.166;2022-08-23T14:45:29;31.40;29.50
23633;DHT22;11993;48.748;9.166;2022-08-23T14:47:54;31.60;29.40
23633;DHT22;11993;48.748;9.166;2022-08-23T14:50:20;31.90;29.30
23633;DHT22;11993;48.748;9.166;2022-08-23T14:52:46;31.60;29.10
23633;DHT22;11993;48.748;9.166;2022-08-23T14:55:13;31.50;29.50
23633;DHT22;11993;48.748;9.166;2022-08-23T14:57:39;31.40;29.80
23633;DHT22;11993;48.748;9.166;2022-08-23T15:00:07;31.00;29.50
23633;DHT22;11993;48.748;9.166;2022-08-23T15:02:33;30.40;29.80
23633;DHT22;11993;48.748;9.166;2022-08-23T15:05:01;30.10;30.50
23633;DHT22;11993;48.748;9.166;2022-08-23T15:07:26;29.90;30.80
23633;DHT22;11993;48.748;9.166;2022-08-23T15:09:52;29.70;31.10
23633;DHT22;11993;48.748;9.166;2022-08-23T15:12:21;29.80;30.90
23633;DHT22;11993;48.748;9.166;2022-08-23T15:14:47;30.00;30.60
23633;DHT22;11993;48.748;9.166;2022-08-23T15:17:13;30.40;30.00
23633;DHT22;11993;48.748;9.166;2022-08-23T15:19:38;30.60;29.90
23633;DHT22;11993;48.748;9.166;2022-08-23T15:22:04;30.60;30.30
23633;DHT22;11993;48.748;9.166;2022-08-23T15:24:30;30.60;30.30
23633;DHT22;11993;48.748;9.166;2022-08-23T15:26:57;30.40;30.90
23633;DHT22;11993;48.748;9.166;2022-08-23T15:29:26;30.30;30.60
23633;DHT22;11993;48.748;9.166;2022-08-23T15:31:53;30.30;30.90
23633;DHT22;11993;48.748;9.166;2022-08-23T15:34:19;30.30;30.90
23633;DHT22;11993;48.748;9.166;2022-08-23T15:36:44;30.20;30.90
23633;DHT22;11993;48.748;9.166;2022-08-23T15:39:10;30.10;30.90
23633;DHT22;11993;48.748;9.166;2022-08-23T15:41:35;29.80;31.50
23633;DHT22;11993;48.748;9.166;2022-08-23T15:44:01;29.80;31.20
23633;DHT22;11993;48.748;9.166;2022-08-23T15:46:27;29.50;31.60
23633;DHT22;11993;48.748;9.166;2022-08-23T15:48:58;29.60;31.50
23633;DHT22;11993;48.748;9.166;2022-08-23T15:51:26;29.60;31.70
23633;DHT22;11993;48.748;9.166;2022-08-23T15:53:51;29.60;31.80
23633;DHT22;11993;48.748;9.166;2022-08-23T15:56:20;29.40;31.70
23633;DHT22;11993;48.748;9.166;2022-08-23T15:58:50;29.30;32.30
23633;DHT22;11993;48.748;9.166;2022-08-23T16:01:19;29.20;32.40
23633;DHT22;11993;48.748;9.166;2022-08-23T16:03:47;29.00;33.10
23633;DHT22;11993;48.748;9.166;2022-08-23T16:06:14;28.70;33.20
23633;DHT22;11993;48.748;9.166;2022-08-23T16:08:41;28.70;33.20
23633;DHT22;11993;48.748;9.166;2022-08-23T16:11:08;28.90;33.40
23633;DHT22;11993;48.748;9.166;2022-08-23T16:13:43;28.60;33.50
23633;DHT22;11993;48.748;9.166;2022-08-23T16:16:15;28.60;33.60
23633;DHT22;11993;48.748;9.166;2022-08-23T16:18:41;28.60;33.60
23633;DHT22;11993;48.748;9.166;2022-08-23T16:21:07;28.40;33.80
23633;DHT22;11993;48.748;9.166;2022-08-23T16:23:33;28.30;33.90
23633;DHT22;11993;48.748;9.166;2022-08-23T16:25:59;28.20;33.80
23633;DHT22;11993;48.748;9.166;2022-08-23T16:28:24;28.40;33.70
23633;DHT22;11993;48.748;9.166;2022-08-23T16:30:50;28.40;33.60
23633;DHT22;11993;48.748;9.166;2022-08-23T16:33:15;28.10;33.90
23633;DHT22;11993;48.748;9.166;2022-08-23T16:35:41;28.20;34.00
23633;DHT22;11993;48.748;9.166;2022-08-23T16:38:06;28.10;33.80
23633;DHT22;11993;48.748;9.166;2022-08-23T16:40:32;28.20;33.90
23633;DHT22;11993;48.748;9.166;2022-08-23T16:42:58;28.10;34.10
23633;DHT22;11993;48.748;9.166;2022-08-23T16:45:23;27.90;34.60
23633;DHT22;11993;48.748;9.166;2022-08-23T16:47:49;27.80;34.70
23633;DHT22;11993;48.748;9.166;2022-08-23T16:50:14;27.90;34.50
23633;DHT22;11993;48.748;9.166;2022-08-23T16:52:40;27.80;34.50
23633;DHT22;11993;48.748;9.166;2022-08-23T16:55:10;27.90;34.50
23633;DHT22;11993;48.748;9.166;2022-08-23T16:57:36;27.80;34.50
23633;DHT22;11993;48.748;9.166;2022-08-23T17:00:03;27.90;34.40
23633;DHT22;11993;48.748;9.166;2022-08-23T17:02:32;27.90;34.50
23633;DHT22;11993;48.748;9.166;2022-08-23T17:04:58;27.80;34.60
23633;DHT22;11993;48.748;9.166;2022-08-23T17:07:24;27.70;35.00
23633;DHT22;11993;48.748;9.166;2022-08-23T17:09:49;27.60;34.90
23633;DHT22;11993;48.748;9.166;2022-08-23T17:12:16;27.60;34.90
23633;DHT22;11993;48.748;9.166;2022-08-23T17:14:42;27.40;35.40
23633;DHT22;11993;48.748;9.166;2022-08-23T17:17:10;27.40;35.20
23633;DHT22;11993;48.748;9.166;2022-08-23T17:19:36;27.40;35.30
23633;DHT22;11993;48.748;9.166;2022-08-23T17:22:01;27.40;35.40
23633;DHT22;11993;48.748;9.166;2022-08-23T17:24:27;27.30;35.40
23633;DHT22;11993;48.748;9.166;2022-08-23T17:26:53;27.40;35.30
23633;DHT22;11993;48.748;9.166;2022-08-23T17:29:18;27.20;35.40
23633;DHT22;11993;48.748;9.166;2022-08-23T17:31:44;27.30;35.40